sensor_id;sensor_type;location;lat;lon;timestamp;pressure;altitude;pressure_sealevel;temperature;humidity
55410;BME280;41279;43.546;16.426;2023-02-22T00:00:49;53273.28;;;-146.77;94.03
55410;BME280;41279;43.546;16.426;2023-02-22T00:03:19;53285.31;;;-146.77;91.60
55410;BME280;41279;43.546;16.426;2023-02-22T00:05:55;53265.28;;;-146.77;88.43
55410;BME280;41279;43.546;16.426;2023-02-22T00:08:24;53357.38;;;-146.77;100.00
55410;BME280;41279;43.546;16.426;2023-02-22T00:10:58;53341.38;;;-146.77;100.00
55410;BME280;41279;43.546;16.426;2023-02-22T00:13:25;53381.41;;;-146.77;100.00
55410;BME280;41279;43.546;16.426;2023-02-22T00:15:54;53367.41;;;-146.77;100.00
55410;BME280;41279;43.546;16.426;2023-02-22T00:18:20;53295.31;;;-146.77;95.20
55410;BME280;41279;43.546;16.426;2023-02-22T00:20:45;53301.31;;;-146.77;95.57
55410;BME280;41279;43.546;16.426;2023-02-22T00:23:17;53251.25;;;-146.77;96.20
55410;BME280;41279;43.546;16.426;2023-02-22T00:25:44;53167.16;;;-146.77;95.10
55410;BME280;41279;43.546;16.426;2023-02-22T00:28:09;53237.25;;;-146.77;94.61
55410;BME280;41279;43.546;16.426;2023-02-22T00:30:35;53229.22;;;-146.77;96.81
55410;BME280;41279;43.546;16.426;2023-02-22T00:33:01;53195.19;;;-146.77;93.60
55410;BME280;41279;43.546;16.426;2023-02-22T00:35:28;53221.22;;;-146.77;98.98
55410;BME280;41279;43.546;16.426;2023-02-22T00:37:57;53183.19;;;-146.77;88.87
55410;BME280;41279;43.546;16.426;2023-02-22T00:40:26;53181.16;;;-146.77;96.20
55410;BME280;41279;43.546;16.426;2023-02-22T00:42:51;53141.13;;;-146.77;95.88
55410;BME280;41279;43.546;16.426;2023-02-22T00:45:21;53177.16;;;-146.77;98.57
55410;BME280;41279;43.546;16.426;2023-02-22T00:47:48;53135.13;;;-146.77;92.56
55410;BME280;41279;43.546;16.426;2023-02-22T00:50:17;53099.06;;;-146.77;90.68
55410;BME280;41279;43.546;16.426;2023-02-22T00:52:44;53101.06;;;-146.77;97.43
55410;BME280;41279;43.546;16.426;2023-02-22T00:55:14;53163.16;;;-146.77;97.41
55410;BME280;41279;43.546;16.426;2023-02-22T00:57:40;53131.13;;;-146.77;95.88
55410;BME280;41279;43.546;16.426;2023-02-22T01:00:08;53179.16;;;-146.77;98.06
55410;BME280;41279;43.546;16.426;2023-02-22T01:02:38;53131.13;;;-146.77;95.62
55410;BME280;41279;43.546;16.426;2023-02-22T01:05:08;53169.16;;;-146.77;93.27
55410;BME280;41279;43.546;16.426;2023-02-22T01:07:37;53119.09;;;-146.77;96.25
55410;BME280;41279;43.546;16.426;2023-02-22T01:10:05;53217.22;;;-146.77;100.00
55410;BME280;41279;43.546;16.426;2023-02-22T01:12:32;53401.44;;;-146.77;100.00
55410;BME280;41279;43.546;16.426;2023-02-22T01:14:58;53175.16;;;-146.77;98.82
55410;BME280;41279;43.546;16.426;2023-02-22T01:17:24;53215.22;;;-146.77;100.00
55410;BME280;41279;43.546;16.426;2023-02-22T01:19:53;53241.25;;;-146.77;100.00
55410;BME280;41279;43.546;16.426;2023-02-22T01:22:19;53213.22;;;-146.77;95.18
55410;BME280;41279;43.546;16.426;2023-02-22T01:24:47;53183.19;;;-146.77;95.88
55410;BME280;41279;43.546;16.426;2023-02-22T01:27:13;53275.28;;;-146.77;100.00
55410;BME280;41279;43.546;16.426;2023-02-22T01:29:39;53707.84;;;-146.77;100.00
55410;BME280;41279;43.546;16.426;2023-02-22T01:32:05;53545.63;;;-146.77;100.00
55410;BME280;41279;43.546;16.426;2023-02-22T01:34:31;53243.25;;;-146.77;100.00
55410;BME280;41279;43.546;16.426;2023-02-22T01:36:58;53319.34;;;-146.77;100.00
55410;BME280;41279;43.546;16.426;2023-02-22T01:39:23;53259.28;;;-146.77;96.83
55410;BME280;41279;43.546;16.426;2023-02-22T01:41:49;53161.16;;;-146.77;95.83
55410;BME280;41279;43.546;16.426;2023-02-22T01:44:31;53199.19;;;-146.77;100.00
55410;BME280;41279;43.546;16.426;2023-02-22T01:46:59;53241.25;;;-146.77;100.00
55410;BME280;41279;43.546;16.426;2023-02-22T01:49:30;53111.09;;;-146.77;97.68
55410;BME280;41279;43.546;16.426;2023-02-22T01:51:59;53147.13;;;-146.77;96.00
55410;BME280;41279;43.546;16.426;2023-02-22T01:54:31;53111.09;;;-146.77;95.17
55410;BME280;41279;43.546;16.426;2023-02-22T01:57:00;53079.06;;;-146.77;100.00
55410;BME280;41279;43.546;16.426;2023-02-22T01:59:33;53181.16;;;-146.77;100.00
55410;BME280;41279;43.546;16.426;2023-02-22T02:01:59;53131.13;;;-146.77;96.51
55410;BME280;41279;43.546;16.426;2023-02-22T02:04:26;53101.06;;;-146.77;97.05
55410;BME280;41279;43.546;16.426;2023-02-22T02:06:53;53175.16;;;-146.77;94.55
55410;BME280;41279;43.546;16.426;2023-02-22T02:09:29;53119.09;;;-146.77;91.01
55410;BME280;41279;43.546;16.426;2023-02-22T02:11:58;53107.09;;;-146.77;92.16
55410;BME280;41279;43.546;16.426;2023-02-22T02:14:25;53097.06;;;-146.77;95.67
55410;BME280;41279;43.546;16.426;2023-02-22T02:16:52;53125.09;;;-146.77;100.00
55410;BME280;41279;43.546;16.426;2023-02-22T02:19:43;53213.22;;;-146.77;92.76
55410;BME280;41279;43.546;16.426;2023-02-22T02:34:04;53203.19;;;-146.77;99.19
55410;BME280;41279;43.546;16.426;2023-02-22T02:36:46;53177.16;;;-146.77;100.00
55410;BME280;41279;43.546;16.426;2023-02-22T02:39:27;53223.22;;;-146.77;100.00
55410;BME280;41279;43.546;16.426;2023-02-22T02:41:56;53187.19;;;-146.77;100.00
55410;BME280;41279;43.546;16.426;2023-02-22T02:44:35;53151.13;;;-146.77;100.00
55410;BME280;41279;43.546;16.426;2023-02-22T02:47:04;53175.16;;;-146.77;100.00
55410;BME280;41279;43.546;16.426;2023-02-22T02:49:38;53097.06;;;-146.77;100.00
55410;BME280;41279;43.546;16.426;2023-02-22T02:52:05;53135.13;;;-146.77;93.84
55410;BME280;41279;43.546;16.426;2023-02-22T02:54:36;53099.06;;;-146.77;93.69
55410;BME280;41279;43.546;16.426;2023-02-22T02:57:02;53109.09;;;-146.77;90.33
55410;BME280;41279;43.546;16.426;2023-02-22T02:59:30;53061.03;;;-146.77;90.70
55410;BME280;41279;43.546;16.426;2023-02-22T03:16:14;53020.97;;;-146.77;89.17
55410;BME280;41279;43.546;16.426;2023-02-22T03:22:01;53041.00;;;-146.77;94.66
55410;BME280;41279;43.546;16.426;2023-02-22T03:27:27;52954.91;;;-146.77;94.53
55410;BME280;41279;43.546;16.426;2023-02-22T03:30:00;52988.94;;;-146.77;93.71
55410;BME280;41279;43.546;16.426;2023-02-22T03:32:33;52948.91;;;-146.77;95.55
55410;BME280;41279;43.546;16.426;2023-02-22T03:35:07;52992.94;;;-146.77;100.00
55410;BME280;41279;43.546;16.426;2023-02-22T03:37:38;53067.03;;;-146.77;100.00
55410;BME280;41279;43.546;16.426;2023-02-22T03:40:08;53105.09;;;-146.77;100.00
55410;BME280;41279;43.546;16.426;2023-02-22T03:42:47;53105.09;;;-146.77;100.00
55410;BME280;41279;43.546;16.426;2023-02-22T03:45:16;53277.28;;;-146.77;100.00
55410;BME280;41279;43.546;16.426;2023-02-22T03:47:48;53197.19;;;-146.77;100.00
55410;BME280;41279;43.546;16.426;2023-02-22T03:50:22;53129.09;;;-146.77;100.00
55410;BME280;41279;43.546;16.426;2023-02-22T03:52:51;53101.06;;;-146.77;95.55
55410;BME280;41279;43.546;16.426;2023-02-22T03:55:17;53018.97;;;-146.77;93.37
55410;BME280;41279;43.546;16.426;2023-02-22T03:57:46;53091.06;;;-146.77;94.17
55410;BME280;41279;43.546;16.426;2023-02-22T04:00:17;53041.00;;;-146.77;89.37
55410;BME280;41279;43.546;16.426;2023-02-22T04:02:43;53039.00;;;-146.77;99.87
55410;BME280;41279;43.546;16.426;2023-02-22T04:05:09;53295.31;;;-146.77;100.00
55410;BME280;41279;43.546;16.426;2023-02-22T04:07:35;53297.31;;;-146.77;100.00
55410;BME280;41279;43.546;16.426;2023-02-22T04:10:01;53273.28;;;-146.77;100.00
55410;BME280;41279;43.546;16.426;2023-02-22T04:12:27;53317.34;;;-146.77;100.00
55410;BME280;41279;43.546;16.426;2023-02-22T04:14:52;53429.47;;;-146.77;100.00
55410;BME280;41279;43.546;16.426;2023-02-22T04:17:18;53531.63;;;-146.77;100.00
55410;BME280;41279;43.546;16.426;2023-02-22T04:19:44;53259.28;;;-146.77;100.00
55410;BME280;41279;43.546;16.426;2023-02-22T04:22:10;53097.06;;;-146.77;100.00
55410;BME280;41279;43.546;16.426;2023-02-22T04:24:36;53271.28;;;-146.77;100.00
55410;BME280;41279;43.546;16.426;2023-02-22T04:27:01;53429.47;;;-146.77;100.00
55410;BME280;41279;43.546;16.426;2023-02-22T04:29:28;53291.31;;;-146.77;100.00
55410;BME280;41279;43.546;16.426;2023-02-22T04:32:00;53099.06;;;-146.77;100.00
55410;BME280;41279;43.546;16.426;2023-02-22T04:34:25;53055.03;;;-146.77;93.50
55410;BME280;41279;43.546;16.426;2023-02-22T04:36:51;53010.97;;;-146.77;89.85
55410;BME280;41279;43.546;16.426;2023-02-22T04:39:16;52994.94;;;-146.77;89.61
55410;BME280;41279;43.546;16.426;2023-02-22T04:41:42;52938.88;;;-146.77;95.49
55410;BME280;41279;43.546;16.426;2023-02-22T04:44:07;52976.94;;;-146.77;94.43
55410;BME280;41279;43.546;16.426;2023-02-22T04:46:32;52968.91;;;-146.77;92.81
55410;BME280;41279;43.546;16.426;2023-02-22T04:48:58;52942.88;;;-146.77;90.44
55410;BME280;41279;43.546;16.426;2023-02-22T04:51:24;52954.91;;;-146.77;86.58
55410;BME280;41279;43.546;16.426;2023-02-22T04:53:50;52932.88;;;-146.77;90.09
55410;BME280;41279;43.546;16.426;2023-02-22T04:56:19;52924.88;;;-146.77;91.94
55410;BME280;41279;43.546;16.426;2023-02-22T04:58:44;52936.88;;;-146.77;88.82
55410;BME280;41279;43.546;16.426;2023-02-22T05:01:10;52890.84;;;-146.77;89.98
55410;BME280;41279;43.546;16.426;2023-02-22T05:03:38;52914.84;;;-146.77;90.96
55410;BME280;41279;43.546;16.426;2023-02-22T05:06:04;52924.88;;;-146.77;87.47
55410;BME280;41279;43.546;16.426;2023-02-22T05:08:30;52916.84;;;-146.77;90.62
55410;BME280;41279;43.546;16.426;2023-02-22T05:10:56;52930.88;;;-146.77;91.44
55410;BME280;41279;43.546;16.426;2023-02-22T05:13:21;52912.84;;;-146.77;95.12
55410;BME280;41279;43.546;16.426;2023-02-22T05:15:46;52914.84;;;-146.77;97.09
55410;BME280;41279;43.546;16.426;2023-02-22T05:18:13;52974.94;;;-146.77;100.00
55410;BME280;41279;43.546;16.426;2023-02-22T05:20:38;52968.91;;;-146.77;100.00
55410;BME280;41279;43.546;16.426;2023-02-22T05:23:04;52882.81;;;-146.77;100.00
55410;BME280;41279;43.546;16.426;2023-02-22T05:25:30;53169.16;;;-146.77;100.00
55410;BME280;41279;43.546;16.426;2023-02-22T05:27:58;53195.19;;;-146.77;100.00
55410;BME280;41279;43.546;16.426;2023-02-22T05:30:27;52864.81;;;-146.77;99.06
55410;BME280;41279;43.546;16.426;2023-02-22T05:32:54;52870.81;;;-146.77;99.22
55410;BME280;41279;43.546;16.426;2023-02-22T05:35:21;52880.81;;;-146.77;92.45
55410;BME280;41279;43.546;16.426;2023-02-22T05:37:47;52818.75;;;-146.77;93.37
55410;BME280;41279;43.546;16.426;2023-02-22T05:40:13;52826.75;;;-146.77;98.63
55410;BME280;41279;43.546;16.426;2023-02-22T05:42:46;52810.75;;;-146.77;95.72
55410;BME280;41279;43.546;16.426;2023-02-22T05:45:12;52794.72;;;-146.77;100.00
55410;BME280;41279;43.546;16.426;2023-02-22T05:47:38;52890.84;;;-146.77;100.00
55410;BME280;41279;43.546;16.426;2023-02-22T05:50:04;52856.78;;;-146.77;90.45
55410;BME280;41279;43.546;16.426;2023-02-22T05:52:30;52738.66;;;-146.77;96.37
55410;BME280;41279;43.546;16.426;2023-02-22T05:54:55;52816.75;;;-146.77;90.41
55410;BME280;41279;43.546;16.426;2023-02-22T05:57:21;52764.69;;;-146.77;90.75
55410;BME280;41279;43.546;16.426;2023-02-22T05:59:46;52844.78;;;-146.77;100.00
55410;BME280;41279;43.546;16.426;2023-02-22T06:02:12;52816.75;;;-146.77;90.55
55410;BME280;41279;43.546;16.426;2023-02-22T06:04:38;52744.66;;;-146.77;96.02
55410;BME280;41279;43.546;16.426;2023-02-22T06:07:04;52794.72;;;-146.77;96.86
55410;BME280;41279;43.546;16.426;2023-02-22T06:09:29;52840.78;;;-146.77;86.82
55410;BME280;41279;43.546;16.426;2023-02-22T06:11:55;52856.78;;;-146.77;83.15
55410;BME280;41279;43.546;16.426;2023-02-22T06:14:21;52832.75;;;-146.77;80.08
55410;BME280;41279;43.546;16.426;2023-02-22T06:16:53;52780.72;;;-146.77;82.02
55410;BME280;41279;43.546;16.426;2023-02-22T06:19:19;52822.75;;;-146.77;82.18
55410;BME280;41279;43.546;16.426;2023-02-22T06:21:52;52828.75;;;-146.77;78.20
55410;BME280;41279;43.546;16.426;2023-02-22T06:24:18;52806.75;;;-146.77;76.59
55410;BME280;41279;43.546;16.426;2023-02-22T06:26:43;52748.66;;;-146.77;76.62
55410;BME280;41279;43.546;16.426;2023-02-22T06:29:09;52744.66;;;-146.77;78.32
55410;BME280;41279;43.546;16.426;2023-02-22T06:31:34;52750.69;;;-146.77;76.92
55410;BME280;41279;43.546;16.426;2023-02-22T06:34:01;52718.63;;;-146.77;79.09
55410;BME280;41279;43.546;16.426;2023-02-22T06:36:27;52722.66;;;-146.77;77.22
55410;BME280;41279;43.546;16.426;2023-02-22T06:38:55;52762.69;;;-146.77;74.85
55410;BME280;41279;43.546;16.426;2023-02-22T06:41:20;52730.66;;;-146.77;75.04
55410;BME280;41279;43.546;16.426;2023-02-22T06:43:46;52694.63;;;-146.77;79.10
55410;BME280;41279;43.546;16.426;2023-02-22T06:46:12;52708.63;;;-146.77;81.24
55410;BME280;41279;43.546;16.426;2023-02-22T06:48:38;52722.66;;;-146.77;80.26
55410;BME280;41279;43.546;16.426;2023-02-22T06:51:06;52762.69;;;-146.77;77.17
55410;BME280;41279;43.546;16.426;2023-02-22T06:53:33;52736.66;;;-146.77;73.27
55410;BME280;41279;43.546;16.426;2023-02-22T06:55:58;52766.69;;;-146.77;71.41
55410;BME280;41279;43.546;16.426;2023-02-22T06:58:24;52800.72;;;-146.77;68.21
55410;BME280;41279;43.546;16.426;2023-02-22T07:00:51;52806.75;;;-146.77;66.61
55410;BME280;41279;43.546;16.426;2023-02-22T07:03:17;52814.75;;;-146.77;65.23
55410;BME280;41279;43.546;16.426;2023-02-22T07:05:42;52810.75;;;-146.77;64.21
55410;BME280;41279;43.546;16.426;2023-02-22T07:08:09;52812.75;;;-146.77;64.98
55410;BME280;41279;43.546;16.426;2023-02-22T07:10:35;52826.75;;;-146.77;66.79
55410;BME280;41279;43.546;16.426;2023-02-22T07:13:03;52774.69;;;-146.77;64.92
55410;BME280;41279;43.546;16.426;2023-02-22T07:15:30;52830.75;;;-146.77;64.06
55410;BME280;41279;43.546;16.426;2023-02-22T07:17:57;52790.72;;;-146.77;63.04
55410;BME280;41279;43.546;16.426;2023-02-22T07:20:23;52756.69;;;-146.77;62.64
55410;BME280;41279;43.546;16.426;2023-02-22T07:22:49;52778.72;;;-146.77;64.09
55410;BME280;41279;43.546;16.426;2023-02-22T07:25:15;52744.66;;;-146.77;63.88
55410;BME280;41279;43.546;16.426;2023-02-22T07:27:41;52758.69;;;-146.77;63.93
55410;BME280;41279;43.546;16.426;2023-02-22T07:30:14;52752.69;;;-146.77;63.05
55410;BME280;41279;43.546;16.426;2023-02-22T07:32:44;52770.69;;;-146.77;62.88
55410;BME280;41279;43.546;16.426;2023-02-22T07:35:18;52806.75;;;-146.77;62.12
55410;BME280;41279;43.546;16.426;2023-02-22T07:37:44;52786.72;;;-146.77;61.91
55410;BME280;41279;43.546;16.426;2023-02-22T07:40:10;52746.66;;;-146.77;61.47
55410;BME280;41279;43.546;16.426;2023-02-22T07:45:25;52760.69;;;-146.77;60.96
55410;BME280;41279;43.546;16.426;2023-02-22T07:47:51;52796.72;;;-146.77;59.89
55410;BME280;41279;43.546;16.426;2023-02-22T07:50:18;52796.72;;;-146.77;59.72
55410;BME280;41279;43.546;16.426;2023-02-22T07:52:45;52758.69;;;-146.77;60.40
55410;BME280;41279;43.546;16.426;2023-02-22T07:55:13;52774.69;;;-146.77;60.09
55410;BME280;41279;43.546;16.426;2023-02-22T07:57:39;52810.75;;;-146.77;58.02
55410;BME280;41279;43.546;16.426;2023-02-22T08:00:05;52758.69;;;-146.77;58.38
55410;BME280;41279;43.546;16.426;2023-02-22T08:02:31;52794.72;;;-146.77;58.41
55410;BME280;41279;43.546;16.426;2023-02-22T08:04:56;52780.72;;;-146.77;58.65
55410;BME280;41279;43.546;16.426;2023-02-22T08:07:22;52758.69;;;-146.77;58.91
55410;BME280;41279;43.546;16.426;2023-02-22T08:09:47;52682.59;;;-146.77;60.84
55410;BME280;41279;43.546;16.426;2023-02-22T08:12:13;52694.63;;;-146.77;61.31
55410;BME280;41279;43.546;16.426;2023-02-22T08:14:38;52726.66;;;-146.77;60.87
55410;BME280;41279;43.546;16.426;2023-02-22T08:17:04;52738.66;;;-146.77;59.95
55410;BME280;41279;43.546;16.426;2023-02-22T08:19:29;52734.66;;;-146.77;59.44
55410;BME280;41279;43.546;16.426;2023-02-22T08:21:54;52802.72;;;-146.77;61.26
55410;BME280;41279;43.546;16.426;2023-02-22T08:24:20;52722.66;;;-146.77;60.28
55410;BME280;41279;43.546;16.426;2023-02-22T08:26:46;52732.66;;;-146.77;60.81
55410;BME280;41279;43.546;16.426;2023-02-22T08:29:11;52730.66;;;-146.77;59.70
55410;BME280;41279;43.546;16.426;2023-02-22T08:31:39;52740.66;;;-146.77;60.16
55410;BME280;41279;43.546;16.426;2023-02-22T08:34:05;52724.66;;;-146.77;61.20
55410;BME280;41279;43.546;16.426;2023-02-22T08:36:30;52738.66;;;-146.77;60.79
55410;BME280;41279;43.546;16.426;2023-02-22T08:38:57;52788.72;;;-146.77;60.03
55410;BME280;41279;43.546;16.426;2023-02-22T08:41:22;52806.75;;;-146.77;60.15
55410;BME280;41279;43.546;16.426;2023-02-22T08:43:48;52766.69;;;-146.77;60.68
55410;BME280;41279;43.546;16.426;2023-02-22T08:46:15;52758.69;;;-146.77;62.24
55410;BME280;41279;43.546;16.426;2023-02-22T08:48:51;52758.69;;;-146.77;62.72
55410;BME280;41279;43.546;16.426;2023-02-22T08:51:17;52810.75;;;-146.77;62.85
55410;BME280;41279;43.546;16.426;2023-02-22T08:53:43;52798.72;;;-146.77;64.35
55410;BME280;41279;43.546;16.426;2023-02-22T08:56:09;52776.69;;;-146.77;65.66
55410;BME280;41279;43.546;16.426;2023-02-22T08:58:35;52766.69;;;-146.77;65.79
55410;BME280;41279;43.546;16.426;2023-02-22T09:01:01;52760.69;;;-146.77;65.02
55410;BME280;41279;43.546;16.426;2023-02-22T09:03:26;52780.72;;;-146.77;65.61
55410;BME280;41279;43.546;16.426;2023-02-22T09:05:52;52772.69;;;-146.77;70.46
55410;BME280;41279;43.546;16.426;2023-02-22T09:08:18;52816.75;;;-146.77;73.30
55410;BME280;41279;43.546;16.426;2023-02-22T09:10:43;52876.81;;;-146.77;76.55
55410;BME280;41279;43.546;16.426;2023-02-22T09:13:10;52914.84;;;-146.77;78.02
55410;BME280;41279;43.546;16.426;2023-02-22T09:15:36;52826.75;;;-146.77;74.18
55410;BME280;41279;43.546;16.426;2023-02-22T09:18:03;52862.81;;;-146.77;75.60
55410;BME280;41279;43.546;16.426;2023-02-22T09:20:29;52856.78;;;-146.77;76.75
55410;BME280;41279;43.546;16.426;2023-02-22T09:22:54;52824.75;;;-146.77;80.29
55410;BME280;41279;43.546;16.426;2023-02-22T09:25:21;52820.75;;;-146.77;77.92
55410;BME280;41279;43.546;16.426;2023-02-22T09:27:51;52876.81;;;-146.77;77.26
55410;BME280;41279;43.546;16.426;2023-02-22T09:30:23;52906.84;;;-146.77;77.19
55410;BME280;41279;43.546;16.426;2023-02-22T09:32:50;52932.88;;;-146.77;74.84
55410;BME280;41279;43.546;16.426;2023-02-22T09:35:16;52846.78;;;-146.77;74.82
55410;BME280;41279;43.546;16.426;2023-02-22T09:37:42;52874.81;;;-146.77;74.30
55410;BME280;41279;43.546;16.426;2023-02-22T09:40:14;52856.78;;;-146.77;70.45
55410;BME280;41279;43.546;16.426;2023-02-22T09:42:48;52864.81;;;-146.77;68.54
55410;BME280;41279;43.546;16.426;2023-02-22T09:45:31;52742.66;;;-146.77;64.75
55410;BME280;41279;43.546;16.426;2023-02-22T09:48:02;52722.66;;;-146.77;66.12
55410;BME280;41279;43.546;16.426;2023-02-22T09:50:35;52804.72;;;-146.77;63.40
55410;BME280;41279;43.546;16.426;2023-02-22T09:55:50;52788.72;;;-146.77;63.06
55410;BME280;41279;43.546;16.426;2023-02-22T09:58:25;52846.78;;;-146.77;60.56
55410;BME280;41279;43.546;16.426;2023-02-22T10:00:59;52854.78;;;-146.77;58.66
55410;BME280;41279;43.546;16.426;2023-02-22T10:06:25;52866.81;;;-146.77;56.51
55410;BME280;41279;43.546;16.426;2023-02-22T10:08:52;52982.94;;;-146.77;55.92
55410;BME280;41279;43.546;16.426;2023-02-22T10:14:36;52844.78;;;-146.77;55.24
55410;BME280;41279;43.546;16.426;2023-02-22T10:22:34;52942.88;;;-146.77;54.90
55410;BME280;41279;43.546;16.426;2023-02-22T10:25:14;52962.91;;;-146.77;57.36
55410;BME280;41279;43.546;16.426;2023-02-22T10:27:46;52950.91;;;-146.77;57.08
55410;BME280;41279;43.546;16.426;2023-02-22T10:30:21;52878.81;;;-146.77;56.53
55410;BME280;41279;43.546;16.426;2023-02-22T10:35:35;52832.75;;;-146.77;58.08
55410;BME280;41279;43.546;16.426;2023-02-22T10:38:11;52846.78;;;-146.77;56.94
55410;BME280;41279;43.546;16.426;2023-02-22T10:40:39;52818.75;;;-146.77;56.83
55410;BME280;41279;43.546;16.426;2023-02-22T10:43:08;52810.75;;;-146.77;56.85
55410;BME280;41279;43.546;16.426;2023-02-22T10:45:35;52830.75;;;-146.77;55.39
55410;BME280;41279;43.546;16.426;2023-02-22T10:48:13;52766.69;;;-146.77;57.50
55410;BME280;41279;43.546;16.426;2023-02-22T10:50:42;52820.75;;;-146.77;58.13
55410;BME280;41279;43.546;16.426;2023-02-22T10:53:09;52824.75;;;-146.77;56.54
55410;BME280;41279;43.546;16.426;2023-02-22T10:55:35;52878.81;;;-146.77;53.85
55410;BME280;41279;43.546;16.426;2023-02-22T10:58:21;52868.81;;;-146.77;55.25
55410;BME280;41279;43.546;16.426;2023-02-22T11:00:46;52850.78;;;-146.77;56.31
55410;BME280;41279;43.546;16.426;2023-02-22T11:03:18;52808.75;;;-146.77;57.69
55410;BME280;41279;43.546;16.426;2023-02-22T11:05:45;52846.78;;;-146.77;58.71
55410;BME280;41279;43.546;16.426;2023-02-22T11:10:46;52908.84;;;-146.77;56.87
55410;BME280;41279;43.546;16.426;2023-02-22T11:15:51;52802.72;;;-146.77;64.17
55410;BME280;41279;43.546;16.426;2023-02-22T11:18:24;52738.66;;;-146.77;67.16
55410;BME280;41279;43.546;16.426;2023-02-22T11:20:58;52782.72;;;-146.77;67.28
55410;BME280;41279;43.546;16.426;2023-02-22T11:23:24;52784.72;;;-146.77;65.75
55410;BME280;41279;43.546;16.426;2023-02-22T11:26:09;52818.75;;;-146.77;63.69
55410;BME280;41279;43.546;16.426;2023-02-22T11:28:36;52868.81;;;-146.77;62.54
55410;BME280;41279;43.546;16.426;2023-02-22T11:31:14;52762.69;;;-146.77;61.73
55410;BME280;41279;43.546;16.426;2023-02-22T11:33:59;52848.78;;;-146.77;60.71
55410;BME280;41279;43.546;16.426;2023-02-22T11:38:57;52788.72;;;-146.77;62.83
55410;BME280;41279;43.546;16.426;2023-02-22T11:41:32;52760.69;;;-146.77;63.66
55410;BME280;41279;43.546;16.426;2023-02-22T11:44:27;52742.66;;;-146.77;62.03
55410;BME280;41279;43.546;16.426;2023-02-22T11:46:54;52758.69;;;-146.77;59.36
55410;BME280;41279;43.546;16.426;2023-02-22T11:49:23;52784.72;;;-146.77;57.66
55410;BME280;41279;43.546;16.426;2023-02-22T11:54:46;52734.66;;;-146.77;57.97
55410;BME280;41279;43.546;16.426;2023-02-22T12:00:21;52862.81;;;-146.77;56.30
55410;BME280;41279;43.546;16.426;2023-02-22T12:03:30;52854.78;;;-146.77;55.11
55410;BME280;41279;43.546;16.426;2023-02-22T12:06:17;52830.75;;;-146.77;54.75
55410;BME280;41279;43.546;16.426;2023-02-22T12:09:21;52782.72;;;-146.77;56.18
55410;BME280;41279;43.546;16.426;2023-02-22T12:14:27;52802.72;;;-146.77;54.02
55410;BME280;41279;43.546;16.426;2023-02-22T12:17:32;52760.69;;;-146.77;57.69
55410;BME280;41279;43.546;16.426;2023-02-22T12:20:21;52862.81;;;-146.77;58.55
55410;BME280;41279;43.546;16.426;2023-02-22T12:25:39;52884.81;;;-146.77;55.21
55410;BME280;41279;43.546;16.426;2023-02-22T12:30:38;52814.75;;;-146.77;57.02
55410;BME280;41279;43.546;16.426;2023-02-22T12:33:11;52782.72;;;-146.77;59.62
55410;BME280;41279;43.546;16.426;2023-02-22T12:35:43;52762.69;;;-146.77;59.39
55410;BME280;41279;43.546;16.426;2023-02-22T12:38:23;52696.63;;;-146.77;61.46
55410;BME280;41279;43.546;16.426;2023-02-22T12:41:08;52738.66;;;-146.77;61.83
55410;BME280;41279;43.546;16.426;2023-02-22T12:43:38;52790.72;;;-146.77;58.82
55410;BME280;41279;43.546;16.426;2023-02-22T12:54:20;52742.66;;;-146.77;63.33
55410;BME280;41279;43.546;16.426;2023-02-22T12:57:05;52714.63;;;-146.77;64.08
55410;BME280;41279;43.546;16.426;2023-02-22T12:59:45;52720.66;;;-146.77;63.63
55410;BME280;41279;43.546;16.426;2023-02-22T13:02:36;52686.59;;;-146.77;66.15
55410;BME280;41279;43.546;16.426;2023-02-22T13:05:02;52790.72;;;-146.77;64.22
55410;BME280;41279;43.546;16.426;2023-02-22T13:21:45;52836.78;;;-146.77;53.32
55410;BME280;41279;43.546;16.426;2023-02-22T13:27:25;52792.72;;;-146.77;53.74
55410;BME280;41279;43.546;16.426;2023-02-22T13:29:57;52794.72;;;-146.77;53.85
55410;BME280;41279;43.546;16.426;2023-02-22T13:32:39;52740.66;;;-146.77;56.62
55410;BME280;41279;43.546;16.426;2023-02-22T13:35:23;52776.69;;;-146.77;56.46
55410;BME280;41279;43.546;16.426;2023-02-22T13:38:23;52784.72;;;-146.77;57.44
55410;BME280;41279;43.546;16.426;2023-02-22T13:41:03;52838.78;;;-146.77;58.43
55410;BME280;41279;43.546;16.426;2023-02-22T13:44:04;52858.78;;;-146.77;58.13
55410;BME280;41279;43.546;16.426;2023-02-22T13:47:10;52804.72;;;-146.77;61.67
55410;BME280;41279;43.546;16.426;2023-02-22T13:52:15;52746.66;;;-146.77;66.39
55410;BME280;41279;43.546;16.426;2023-02-22T13:54:48;52834.78;;;-146.77;68.06
55410;BME280;41279;43.546;16.426;2023-02-22T13:57:38;52810.75;;;-146.77;68.23
55410;BME280;41279;43.546;16.426;2023-02-22T14:00:19;52794.72;;;-146.77;67.18
55410;BME280;41279;43.546;16.426;2023-02-22T14:03:14;52822.75;;;-146.77;68.89
55410;BME280;41279;43.546;16.426;2023-02-22T14:05:51;52870.81;;;-146.77;67.96
55410;BME280;41279;43.546;16.426;2023-02-22T14:13:10;52910.84;;;-146.77;67.73
55410;BME280;41279;43.546;16.426;2023-02-22T14:21:08;52838.78;;;-146.77;67.14
55410;BME280;41279;43.546;16.426;2023-02-22T14:23:42;52958.91;;;-146.77;65.57
55410;BME280;41279;43.546;16.426;2023-02-22T14:26:30;52780.72;;;-146.77;62.68
55410;BME280;41279;43.546;16.426;2023-02-22T14:31:25;52760.69;;;-146.77;60.24
55410;BME280;41279;43.546;16.426;2023-02-22T14:34:15;52786.72;;;-146.77;61.50
55410;BME280;41279;43.546;16.426;2023-02-22T14:39:38;52870.81;;;-146.77;58.35